createdAt,value
2018-12-12T00:01:23.364Z,20.23
2018-12-12T00:03:50.851Z,21.60
2018-12-12T00:06:18.245Z,19.67
2018-12-12T00:08:45.642Z,22.03
2018-12-12T00:11:13.117Z,20.90
2018-12-12T00:13:40.505Z,21.20
2018-12-12T00:16:07.911Z,20.80
2018-12-12T00:18:35.379Z,22.07
2018-12-12T00:21:02.855Z,21.80
2018-12-12T00:23:30.334Z,21.47
2018-12-12T00:25:57.712Z,20.03
2018-12-12T00:28:25.122Z,21.13
2018-12-12T00:30:52.510Z,21.13
2018-12-12T00:33:19.907Z,20.80
2018-12-12T00:35:47.306Z,21.93
2018-12-12T00:38:14.740Z,22.40
2018-12-12T00:40:42.346Z,22.00
2018-12-12T00:43:09.821Z,22.07
2018-12-12T00:45:37.213Z,23.73
2018-12-12T00:48:04.701Z,23.03
2018-12-12T00:50:32.089Z,23.87
2018-12-12T00:52:59.494Z,24.00
2018-12-12T00:55:26.926Z,21.90
2018-12-12T00:57:54.571Z,23.00
2018-12-12T01:00:21.953Z,23.03
2018-12-12T01:02:49.393Z,24.90
2018-12-12T01:05:16.794Z,26.97
2018-12-12T01:07:44.190Z,31.30
2018-12-12T01:10:11.671Z,25.97
2018-12-12T01:12:39.062Z,26.77
2018-12-12T01:15:06.473Z,24.30
2018-12-12T01:17:33.888Z,24.27
2018-12-12T01:20:01.279Z,22.77
2018-12-12T01:22:28.668Z,21.73
2018-12-12T01:24:56.059Z,22.33
2018-12-12T01:27:23.454Z,23.80
2018-12-12T01:29:50.841Z,25.97
2018-12-12T01:32:18.232Z,25.13
2018-12-12T01:34:45.622Z,23.60
2018-12-12T01:37:13.056Z,23.70
2018-12-12T01:39:40.460Z,22.47
2018-12-12T01:42:07.864Z,22.70
2018-12-12T01:44:35.292Z,21.60
2018-12-12T01:47:02.688Z,22.27
2018-12-12T01:49:30.089Z,21.93
2018-12-12T01:51:57.478Z,21.30
2018-12-12T01:54:24.886Z,22.00
2018-12-12T01:56:52.357Z,21.93
2018-12-12T01:59:19.761Z,21.37
2018-12-12T02:01:47.194Z,23.23
2018-12-12T02:04:14.597Z,22.47
2018-12-12T02:06:41.980Z,21.70
2018-12-12T02:09:09.365Z,21.63
2018-12-12T02:11:36.885Z,21.63
2018-12-12T02:14:04.273Z,21.27
2018-12-12T02:16:31.712Z,21.40
2018-12-12T02:18:59.421Z,20.33
2018-12-12T02:21:26.817Z,20.40
2018-12-12T02:23:54.203Z,20.00
2018-12-12T02:26:21.694Z,21.30
2018-12-12T02:28:49.080Z,21.37
2018-12-12T02:31:16.477Z,20.40
2018-12-12T02:33:43.871Z,19.77
2018-12-12T02:36:11.395Z,21.03
2018-12-12T02:38:39.258Z,19.40
2018-12-12T02:41:06.947Z,21.33
2018-12-12T02:43:34.490Z,19.90
2018-12-12T02:46:02.417Z,19.73
2018-12-12T02:48:29.830Z,20.03
2018-12-12T02:50:57.292Z,19.97
2018-12-12T02:53:24.760Z,20.93
2018-12-12T02:55:52.234Z,20.80
2018-12-12T02:58:19.630Z,19.30
2018-12-12T03:00:47.029Z,19.60
2018-12-12T03:03:14.412Z,21.10
2018-12-12T03:05:41.815Z,20.23
2018-12-12T03:08:09.202Z,20.10
2018-12-12T03:10:36.674Z,20.27
2018-12-12T03:13:04.056Z,19.10
2018-12-12T03:15:31.458Z,21.67
2018-12-12T03:17:58.851Z,21.30
2018-12-12T03:20:29.734Z,21.57
2018-12-12T03:22:57.133Z,21.50
2018-12-12T03:25:24.531Z,21.40
2018-12-12T03:27:51.920Z,22.10
2018-12-12T03:30:19.320Z,21.83
2018-12-12T03:32:46.815Z,20.13
2018-12-12T03:35:14.297Z,20.20
2018-12-12T03:37:41.781Z,18.90
2018-12-12T03:40:09.444Z,19.97
2018-12-12T03:42:37.193Z,19.90
2018-12-12T03:45:05.074Z,19.57
2018-12-12T03:47:32.470Z,19.27
2018-12-12T03:49:59.862Z,19.00
2018-12-12T03:52:27.255Z,19.97
2018-12-12T03:54:54.628Z,19.80
2018-12-12T03:57:22.018Z,20.03
2018-12-12T03:59:49.411Z,19.20
2018-12-12T04:02:16.807Z,20.50
2018-12-12T04:04:44.207Z,21.23
2018-12-12T04:07:11.686Z,20.50
2018-12-12T04:09:39.070Z,20.20
2018-12-12T04:12:06.457Z,21.73
2018-12-12T04:14:33.850Z,21.80
2018-12-12T04:17:01.249Z,21.40
2018-12-12T04:19:28.628Z,21.07
2018-12-12T04:21:56.078Z,21.00
2018-12-12T04:24:25.405Z,19.90
2018-12-12T04:26:52.797Z,20.80
2018-12-12T04:29:20.195Z,19.60
2018-12-12T04:31:47.653Z,20.00
2018-12-12T04:34:15.051Z,19.70
2018-12-12T04:36:42.439Z,20.57
2018-12-12T04:39:09.914Z,19.97
2018-12-12T04:41:37.312Z,19.87
2018-12-12T04:44:04.710Z,18.20
2018-12-12T04:46:32.178Z,18.83
2018-12-12T04:48:59.649Z,17.70
2018-12-12T04:51:27.187Z,18.37
2018-12-12T04:53:54.686Z,18.33
2018-12-12T04:56:22.071Z,18.93
2018-12-12T04:58:49.525Z,18.60
2018-12-12T05:01:16.966Z,19.60
2018-12-12T05:03:44.355Z,16.37
2018-12-12T05:06:11.758Z,17.30
2018-12-12T05:08:39.216Z,16.63
2018-12-12T05:11:06.605Z,17.00
2018-12-12T05:13:34.210Z,17.43
2018-12-12T05:16:01.593Z,19.63
2018-12-12T05:18:29.006Z,19.80
2018-12-12T05:20:56.442Z,19.40
2018-12-12T05:23:23.830Z,21.83
2018-12-12T05:25:51.225Z,21.40
2018-12-12T05:28:18.616Z,22.30
2018-12-12T05:30:46.098Z,21.60
2018-12-12T05:33:13.476Z,20.97
2018-12-12T05:35:40.875Z,20.30
2018-12-12T05:38:08.261Z,19.40
2018-12-12T05:40:35.904Z,20.33
2018-12-12T05:43:03.295Z,21.30
2018-12-12T05:45:30.829Z,21.20
2018-12-12T05:47:58.221Z,22.80
2018-12-12T05:50:25.619Z,22.53
2018-12-12T05:52:53.015Z,22.43
2018-12-12T05:55:20.401Z,21.17
2018-12-12T05:57:48.484Z,20.47
2018-12-12T06:00:16.162Z,20.43
2018-12-12T06:02:43.606Z,20.30
2018-12-12T06:05:11.020Z,19.60
2018-12-12T06:07:38.406Z,19.10
2018-12-12T06:10:07.064Z,19.20
2018-12-12T06:12:34.451Z,20.30
2018-12-12T06:15:01.887Z,20.30
2018-12-12T06:17:29.390Z,18.70
2018-12-12T06:19:57.033Z,18.90
2018-12-12T06:22:24.479Z,19.17
2018-12-12T06:24:51.865Z,20.07
2018-12-12T06:27:19.253Z,19.80
2018-12-12T06:29:46.650Z,20.87
2018-12-12T06:32:14.045Z,21.37
2018-12-12T06:34:41.438Z,21.20
2018-12-12T06:37:08.861Z,22.20
2018-12-12T06:39:36.329Z,21.10
2018-12-12T06:42:03.785Z,21.67
2018-12-12T06:44:31.174Z,20.60
2018-12-12T06:46:58.566Z,22.27
2018-12-12T06:49:25.953Z,21.93
2018-12-12T06:51:53.350Z,22.93
2018-12-12T06:54:20.776Z,22.70
2018-12-12T06:56:48.174Z,22.30
2018-12-12T06:59:15.558Z,23.50
2018-12-12T07:01:43.344Z,23.07
2018-12-12T07:04:10.862Z,23.97
2018-12-12T07:06:38.320Z,22.90
2018-12-12T07:09:07.087Z,25.73
2018-12-12T07:11:34.474Z,25.43
2018-12-12T07:14:02.223Z,26.10
2018-12-12T07:16:29.749Z,24.70
2018-12-12T07:18:57.128Z,23.87
2018-12-12T07:21:24.512Z,26.73
2018-12-12T07:23:51.919Z,27.70
2018-12-12T07:26:19.585Z,27.43
2018-12-12T07:28:47.057Z,28.37
2018-12-12T07:31:14.454Z,28.50
2018-12-12T07:33:41.897Z,26.70
2018-12-12T07:36:09.280Z,28.90
2018-12-12T07:38:36.681Z,27.07
2018-12-12T07:41:04.159Z,29.77
2018-12-12T07:43:31.544Z,30.40
2018-12-12T07:45:58.945Z,26.87
2018-12-12T07:48:26.338Z,27.17
2018-12-12T07:50:53.733Z,29.10
2018-12-12T07:53:21.200Z,25.80
2018-12-12T07:55:48.598Z,25.60
2018-12-12T07:58:15.987Z,26.00
2018-12-12T08:00:43.381Z,26.27
2018-12-12T08:03:10.764Z,26.20
2018-12-12T08:05:38.204Z,27.43
2018-12-12T08:08:05.641Z,28.73
2018-12-12T08:10:33.265Z,27.10
2018-12-12T08:13:00.657Z,27.60
2018-12-12T08:15:28.049Z,25.57
2018-12-12T08:17:55.445Z,23.37
2018-12-12T08:20:22.921Z,21.30
2018-12-12T08:22:50.317Z,21.63
2018-12-12T08:25:18.198Z,21.67
2018-12-12T08:27:45.638Z,21.63
2018-12-12T08:30:13.085Z,22.13
2018-12-12T08:32:40.505Z,20.43
2018-12-12T08:35:07.966Z,21.80
2018-12-12T08:37:35.348Z,27.67
2018-12-12T08:40:04.232Z,29.23
2018-12-12T08:42:31.623Z,29.87
2018-12-12T08:44:59.004Z,32.00
2018-12-12T08:47:26.393Z,32.10
2018-12-12T08:49:53.792Z,30.73
2018-12-12T08:52:21.183Z,30.90
2018-12-12T08:54:48.570Z,29.27
2018-12-12T08:57:16.201Z,29.20
2018-12-12T08:59:43.589Z,28.07
2018-12-12T09:02:10.985Z,28.40
2018-12-12T09:04:38.368Z,28.03
2018-12-12T09:07:07.385Z,25.80
2018-12-12T09:09:35.001Z,28.90
2018-12-12T09:12:02.402Z,25.47
2018-12-12T09:14:29.800Z,24.50
2018-12-12T09:16:57.210Z,22.33
2018-12-12T09:19:24.589Z,24.10
2018-12-12T09:21:51.982Z,22.67
2018-12-12T09:24:19.421Z,23.13
2018-12-12T09:26:48.290Z,23.33
2018-12-12T09:29:15.901Z,23.50
2018-12-12T09:31:43.319Z,21.87
2018-12-12T09:34:10.728Z,23.17
2018-12-12T09:36:38.166Z,22.07
2018-12-12T09:39:07.654Z,22.00
2018-12-12T09:41:35.225Z,21.40
2018-12-12T09:44:02.706Z,21.50
2018-12-12T09:46:30.096Z,20.10
2018-12-12T09:48:57.558Z,21.13
2018-12-12T09:51:24.944Z,21.40
2018-12-12T09:53:52.402Z,19.77
2018-12-12T09:56:19.805Z,17.40
2018-12-12T09:58:47.191Z,17.23
2018-12-12T10:01:14.581Z,18.40
2018-12-12T10:03:41.968Z,19.17
2018-12-12T10:06:09.364Z,17.20
2018-12-12T10:08:36.838Z,16.70
2018-12-12T10:11:04.240Z,16.13
2018-12-12T10:13:31.628Z,17.60
2018-12-12T10:15:59.098Z,17.33
2018-12-12T10:18:26.487Z,18.07
2018-12-12T10:20:53.949Z,17.80
2018-12-12T10:23:21.332Z,16.87
2018-12-12T10:25:48.793Z,15.83
2018-12-12T10:28:16.181Z,18.10
2018-12-12T10:30:43.578Z,18.40
2018-12-12T10:33:10.970Z,17.90
2018-12-12T10:35:38.444Z,17.33
2018-12-12T10:38:05.848Z,16.10
2018-12-12T10:40:33.240Z,16.43
2018-12-12T10:43:00.670Z,17.03
2018-12-12T10:45:28.061Z,16.43
2018-12-12T10:47:55.444Z,15.97
2018-12-12T10:50:23.029Z,14.10
2018-12-12T10:52:50.417Z,14.20
2018-12-12T10:55:17.828Z,11.53
2018-12-12T10:57:45.199Z,11.90
2018-12-12T11:00:13.102Z,9.53
2018-12-12T11:02:42.514Z,10.10
2018-12-12T11:05:10.245Z,9.73
2018-12-12T11:07:37.714Z,10.33
2018-12-12T11:10:05.593Z,10.90
2018-12-12T11:12:32.993Z,10.70
2018-12-12T11:15:00.622Z,10.73
2018-12-12T11:17:28.017Z,11.67
2018-12-12T11:19:55.405Z,11.17
2018-12-12T11:22:22.801Z,10.90
2018-12-12T11:24:50.233Z,11.00
2018-12-12T11:27:17.634Z,11.13
2018-12-12T11:29:45.024Z,10.97
2018-12-12T11:32:12.425Z,11.63
2018-12-12T11:34:39.895Z,12.20
2018-12-12T11:37:07.286Z,11.00
2018-12-12T11:39:34.676Z,10.77
2018-12-12T11:42:02.118Z,10.10
2018-12-12T11:44:29.589Z,10.70
2018-12-12T11:46:58.027Z,10.13
2018-12-12T11:49:25.564Z,10.93
2018-12-12T11:51:53.097Z,10.67
2018-12-12T11:54:20.829Z,11.17
2018-12-12T11:56:48.221Z,10.33
2018-12-12T11:59:15.612Z,10.87
2018-12-12T12:01:43.081Z,10.40
2018-12-12T12:04:10.473Z,11.20
2018-12-12T12:06:37.865Z,9.60
2018-12-12T12:09:06.890Z,8.57
2018-12-12T12:11:34.355Z,9.40
2018-12-12T12:14:01.861Z,9.37
2018-12-12T12:16:29.258Z,10.20
2018-12-12T12:18:56.653Z,10.50
2018-12-12T12:21:24.129Z,10.07
2018-12-12T12:23:51.513Z,10.40
2018-12-12T12:26:18.909Z,9.40
2018-12-12T12:28:46.301Z,9.00
2018-12-12T12:31:13.801Z,10.10
2018-12-12T12:33:41.536Z,9.60
2018-12-12T12:36:08.920Z,9.43
2018-12-12T12:38:36.389Z,9.70
2018-12-12T12:41:03.852Z,8.93
2018-12-12T12:43:31.243Z,9.40
2018-12-12T12:45:58.731Z,9.90
2018-12-12T12:48:26.192Z,9.57
2018-12-12T12:50:53.583Z,9.87
2018-12-12T12:53:20.973Z,9.70
2018-12-12T12:55:48.356Z,9.70
2018-12-12T12:58:15.830Z,9.93
2018-12-12T13:00:43.225Z,10.87
2018-12-12T13:03:10.608Z,10.57
2018-12-12T13:05:38.009Z,10.80
2018-12-12T13:08:05.389Z,9.83
2018-12-12T13:10:33.139Z,10.23
2018-12-12T13:13:00.568Z,10.60
2018-12-12T13:15:28.455Z,9.70
2018-12-12T13:17:56.005Z,9.50
2018-12-12T13:20:23.394Z,9.23
2018-12-12T13:22:50.779Z,9.80
2018-12-12T13:25:18.178Z,9.20
2018-12-12T13:27:45.598Z,9.10
2018-12-12T13:30:13.074Z,9.47
2018-12-12T13:32:40.471Z,9.20
2018-12-12T13:35:07.970Z,8.63
2018-12-12T13:37:35.416Z,9.40
2018-12-12T13:40:02.888Z,9.50
2018-12-12T13:42:30.280Z,9.40
2018-12-12T13:44:57.670Z,9.90
2018-12-12T13:47:25.081Z,9.57
2018-12-12T13:49:52.481Z,9.27
2018-12-12T13:52:19.896Z,9.97
2018-12-12T13:54:47.352Z,10.10
2018-12-12T13:57:14.912Z,9.70
2018-12-12T13:59:42.312Z,9.37
2018-12-12T14:02:09.788Z,9.60
2018-12-12T14:04:37.267Z,10.20
2018-12-12T14:07:04.741Z,11.13
2018-12-12T14:09:32.217Z,9.70
2018-12-12T14:11:59.605Z,10.53
2018-12-12T14:14:26.997Z,10.53
2018-12-12T14:16:54.389Z,9.77
2018-12-12T14:19:21.780Z,10.77
2018-12-12T14:21:49.165Z,9.70
2018-12-12T14:24:16.573Z,10.00
2018-12-12T14:26:44.050Z,9.40
2018-12-12T14:29:11.447Z,10.33
2018-12-12T14:31:38.913Z,11.00
2018-12-12T14:34:06.311Z,9.87
2018-12-12T14:36:33.697Z,10.40
2018-12-12T14:39:01.096Z,11.20
2018-12-12T14:41:28.572Z,11.53
2018-12-12T14:43:55.971Z,12.30
2018-12-12T14:46:23.372Z,12.63
2018-12-12T14:48:51.642Z,12.57
2018-12-12T14:51:19.112Z,11.40
2018-12-12T14:53:46.629Z,12.30
2018-12-12T14:56:14.016Z,12.17
2018-12-12T14:58:41.410Z,10.97
2018-12-12T15:01:08.813Z,11.50
2018-12-12T15:03:36.202Z,11.67
2018-12-12T15:06:03.601Z,12.30
2018-12-12T15:08:31.031Z,12.30
2018-12-12T15:10:58.416Z,12.13
2018-12-12T15:13:25.886Z,11.80
2018-12-12T15:15:53.316Z,12.00
2018-12-12T15:18:20.709Z,11.93
2018-12-12T15:20:48.177Z,12.47
2018-12-12T15:23:15.569Z,11.17
2018-12-12T15:25:43.309Z,12.03
2018-12-12T15:28:10.700Z,11.30
2018-12-12T15:30:38.098Z,12.93
2018-12-12T15:33:05.563Z,12.10
2018-12-12T15:35:32.972Z,12.90
2018-12-12T15:38:01.431Z,11.60
2018-12-12T15:40:29.181Z,11.77
2018-12-12T15:42:56.601Z,12.27
2018-12-12T15:45:24.012Z,11.93
2018-12-12T15:47:51.545Z,11.10
2018-12-12T15:50:18.998Z,12.43
2018-12-12T15:52:46.412Z,12.20
2018-12-12T15:55:13.861Z,12.63
2018-12-12T15:57:41.270Z,12.93
2018-12-12T16:00:08.981Z,13.93
2018-12-12T16:02:36.540Z,12.93
2018-12-12T16:05:04.270Z,12.20
2018-12-12T16:07:31.682Z,11.63
2018-12-12T16:09:59.102Z,12.47
2018-12-12T16:12:26.496Z,12.83
2018-12-12T16:14:53.890Z,13.80
2018-12-12T16:17:21.282Z,15.53
2018-12-12T16:19:48.661Z,14.30
2018-12-12T16:22:16.112Z,15.63
2018-12-12T16:24:43.526Z,14.47
2018-12-12T16:27:10.943Z,15.03
2018-12-12T16:29:38.354Z,16.00
2018-12-12T16:32:05.785Z,17.77
2018-12-12T16:34:33.181Z,16.83
2018-12-12T16:37:00.566Z,17.20
2018-12-12T16:39:27.957Z,16.10
2018-12-12T16:41:55.349Z,16.20
2018-12-12T16:44:22.746Z,15.97
2018-12-12T16:46:50.220Z,16.87
2018-12-12T16:49:18.505Z,16.37
2018-12-12T16:51:45.914Z,15.27
2018-12-12T16:54:13.293Z,16.43
2018-12-12T16:56:40.688Z,17.73
2018-12-12T16:59:08.071Z,16.13
2018-12-12T17:01:35.577Z,17.13
2018-12-12T17:04:03.045Z,16.47
2018-12-12T17:06:30.523Z,18.43
2018-12-12T17:08:58.000Z,16.60
2018-12-12T17:11:25.500Z,16.00
2018-12-12T17:13:52.897Z,15.73
2018-12-12T17:16:20.304Z,17.00
2018-12-12T17:18:47.705Z,16.80
2018-12-12T17:21:15.168Z,15.90
2018-12-12T17:23:42.569Z,15.73
2018-12-12T17:26:10.039Z,16.70
2018-12-12T17:28:37.443Z,16.77
2018-12-12T17:31:04.876Z,16.90
2018-12-12T17:33:32.280Z,16.63
2018-12-12T17:35:59.715Z,17.97
2018-12-12T17:38:27.346Z,17.13
2018-12-12T17:40:54.729Z,18.20
2018-12-12T17:43:22.862Z,17.47
2018-12-12T17:45:50.388Z,18.30
2018-12-12T17:48:17.831Z,18.13
2018-12-12T17:50:45.225Z,17.30
2018-12-12T17:53:12.625Z,16.87
2018-12-12T17:55:40.019Z,17.53
2018-12-12T17:58:07.420Z,17.20
2018-12-12T18:00:34.853Z,17.43
2018-12-12T18:03:02.338Z,17.67
2018-12-12T18:05:29.822Z,18.33
2018-12-12T18:07:57.256Z,16.70
2018-12-12T18:10:24.648Z,18.10
2018-12-12T18:12:52.038Z,18.60
2018-12-12T18:15:19.424Z,17.90
2018-12-12T18:17:47.431Z,18.90
2018-12-12T18:20:14.835Z,17.67
2018-12-12T18:22:42.227Z,18.07
2018-12-12T18:25:09.665Z,18.23
2018-12-12T18:27:37.101Z,17.80
2018-12-12T18:30:06.086Z,18.07
2018-12-12T18:32:33.491Z,17.20
2018-12-12T18:35:00.884Z,18.50
2018-12-12T18:37:28.277Z,18.20
2018-12-12T18:39:55.665Z,18.73
2018-12-12T18:42:23.101Z,17.70
2018-12-12T18:44:50.533Z,17.17
2018-12-12T18:47:17.938Z,18.17
2018-12-12T18:49:45.358Z,17.07
2018-12-12T18:52:12.752Z,17.50
2018-12-12T18:54:40.136Z,18.53
2018-12-12T18:57:07.725Z,17.67
2018-12-12T18:59:35.120Z,16.43
2018-12-12T19:02:02.509Z,16.57
2018-12-12T19:04:29.902Z,17.60
2018-12-12T19:06:57.341Z,18.27
2018-12-12T19:09:24.741Z,17.10
2018-12-12T19:11:52.133Z,17.93
2018-12-12T19:14:19.527Z,17.23
2018-12-12T19:16:46.916Z,19.27
2018-12-12T19:19:14.304Z,16.70
2018-12-12T19:21:41.821Z,17.53
2018-12-12T19:24:09.225Z,17.60
2018-12-12T19:26:36.604Z,17.80
2018-12-12T19:29:04.098Z,16.10
2018-12-12T19:31:31.489Z,18.50
2018-12-12T19:33:58.892Z,16.80
2018-12-12T19:36:26.281Z,15.37
2018-12-12T19:38:53.709Z,15.87
2018-12-12T19:41:21.102Z,17.20
2018-12-12T19:43:48.480Z,18.42
2018-12-12T19:46:15.891Z,16.10
2018-12-12T19:48:43.363Z,17.53
2018-12-12T19:51:10.846Z,17.13
2018-12-12T19:53:38.393Z,18.83
2018-12-12T19:56:05.888Z,17.87
2018-12-12T19:58:33.303Z,17.73
2018-12-12T20:01:00.809Z,18.43
2018-12-12T20:03:28.435Z,18.07
2018-12-12T20:05:55.877Z,17.90
2018-12-12T20:08:23.355Z,19.23
2018-12-12T20:10:50.883Z,18.43
2018-12-12T20:13:18.414Z,18.87
2018-12-12T20:15:46.354Z,18.43
2018-12-12T20:18:14.905Z,18.87
2018-12-12T20:20:43.220Z,18.47
2018-12-12T20:23:10.615Z,17.60
2018-12-12T20:25:38.073Z,16.73
2018-12-12T20:28:05.546Z,16.27
2018-12-12T20:30:35.435Z,16.73
2018-12-12T20:33:02.501Z,17.77
2018-12-12T20:35:29.902Z,17.67
2018-12-12T20:37:57.569Z,17.03
2018-12-12T20:40:28.241Z,16.83
2018-12-12T20:42:55.747Z,16.73
2018-12-12T20:45:23.281Z,18.10
2018-12-12T20:47:51.595Z,18.10
2018-12-12T20:50:19.026Z,17.00
2018-12-12T20:52:46.424Z,16.70
2018-12-12T20:55:13.971Z,17.03
2018-12-12T20:57:41.724Z,17.20
2018-12-12T21:00:09.186Z,17.03
2018-12-12T21:02:36.714Z,16.87
2018-12-12T21:05:04.431Z,16.33
2018-12-12T21:07:31.856Z,16.70
2018-12-12T21:09:59.246Z,17.53
2018-12-12T21:12:26.764Z,19.27
2018-12-12T21:14:54.215Z,18.70
2018-12-12T21:17:21.597Z,20.33
2018-12-12T21:19:49.073Z,21.80
2018-12-12T21:22:16.463Z,20.13
2018-12-12T21:24:43.941Z,17.93
2018-12-12T21:27:11.325Z,18.13
2018-12-12T21:29:38.784Z,17.73
2018-12-12T21:32:06.181Z,18.77
2018-12-12T21:34:33.619Z,17.83
2018-12-12T21:37:01.064Z,17.80
2018-12-12T21:39:28.436Z,19.17
2018-12-12T21:41:55.825Z,18.17
2018-12-12T21:44:24.096Z,17.53
2018-12-12T21:46:51.492Z,18.37
2018-12-12T21:49:18.947Z,18.53
2018-12-12T21:51:46.324Z,18.20
2018-12-12T21:54:13.713Z,18.40
2018-12-12T21:56:41.108Z,18.00
2018-12-12T21:59:08.502Z,18.27
2018-12-12T22:01:35.896Z,18.47
2018-12-12T22:04:03.401Z,18.13
2018-12-12T22:06:30.801Z,17.80
2018-12-12T22:08:58.200Z,19.40
2018-12-12T22:11:25.597Z,18.30
2018-12-12T22:13:52.985Z,19.33
2018-12-12T22:16:20.436Z,18.63
2018-12-12T22:18:47.858Z,18.23
2018-12-12T22:21:15.244Z,17.57
2018-12-12T22:23:42.639Z,17.30
2018-12-12T22:26:10.109Z,18.63
2018-12-12T22:28:37.508Z,19.00
2018-12-12T22:31:04.901Z,17.10
2018-12-12T22:33:32.366Z,17.10
2018-12-12T22:35:59.803Z,15.70
2018-12-12T22:38:27.269Z,17.00
2018-12-12T22:40:54.658Z,16.90
2018-12-12T22:43:22.121Z,17.03
2018-12-12T22:45:49.518Z,15.30
2018-12-12T22:48:20.584Z,15.50
2018-12-12T22:50:46.279Z,15.00
2018-12-12T22:53:13.677Z,16.57
2018-12-12T22:55:41.070Z,16.60
2018-12-12T22:58:08.469Z,16.60
2018-12-12T23:00:36.005Z,15.77
2018-12-12T23:03:03.693Z,16.10
2018-12-12T23:05:31.208Z,16.97
2018-12-12T23:07:58.725Z,15.70
2018-12-12T23:10:26.128Z,16.30
2018-12-12T23:12:53.509Z,17.13
2018-12-12T23:15:20.924Z,17.10
2018-12-12T23:17:48.393Z,17.80
2018-12-12T23:20:15.787Z,16.87
2018-12-12T23:22:43.186Z,15.80
2018-12-12T23:25:10.573Z,17.73
2018-12-12T23:27:37.960Z,17.50
2018-12-12T23:30:07.345Z,17.07
2018-12-12T23:32:34.737Z,17.93
2018-12-12T23:35:02.176Z,18.40
2018-12-12T23:37:29.574Z,18.60
2018-12-12T23:39:57.055Z,17.20
2018-12-12T23:42:24.520Z,18.97
2018-12-12T23:44:51.917Z,18.70
2018-12-12T23:47:19.374Z,17.30
2018-12-12T23:49:46.772Z,18.60
2018-12-12T23:52:14.178Z,18.00
2018-12-12T23:54:41.560Z,17.57
2018-12-12T23:57:08.978Z,17.17
2018-12-12T23:59:36.440Z,17.20
